Time;durP1;ratioP1;P1;durP2;ratioP2;P2;SDS_P1;SDS_P2;PMS_P1;PMS_P2;Temp;Humidity;BMP_temperature;BMP_pressure;BME280_temperature;BME280_humidity;BME280_pressure;Samples;Min_cycle;Max_cycle;Signal;HPM_P1;HPM_P2
2022/07/13 00:00:59;;;;;;;3.67;0.70;;;;;;;19.26;100.00;100338.88;7388356;19;20022;-79
2022/07/13 00:03:25;;;;;;;1.80;0.52;;;;;;;19.35;100.00;100335.75;7387517;19;20380;-79
2022/07/13 00:05:51;;;;;;;0.60;0.30;;;;;;;19.40;100.00;100343.44;7387530;19;20368;-79
2022/07/13 00:08:17;;;;;;;0.40;0.20;;;;;;;19.47;100.00;100337.19;7385613;19;20018;-79
2022/07/13 00:10:44;;;;;;;0.77;0.47;;;;;;;19.53;100.00;100335.06;7386256;19;20018;-79
2022/07/13 00:13:10;;;;;;;3.45;0.47;;;;;;;19.59;100.00;100335.81;7385214;19;20776;-79
2022/07/13 00:15:37;;;;;;;2.72;0.30;;;;;;;19.62;100.00;100334.75;7393382;19;20380;-80
2022/07/13 00:18:03;;;;;;;1.40;0.38;;;;;;;19.75;100.00;100333.38;7383925;19;20014;-79
2022/07/13 00:20:29;;;;;;;2.65;0.13;;;;;;;19.72;100.00;100337.25;7385832;19;20014;-79
2022/07/13 00:22:55;;;;;;;0.10;0.10;;;;;;;19.89;100.00;100338.63;7385164;19;20062;-79
2022/07/13 00:25:22;;;;;;;0.75;0.10;;;;;;;19.97;100.00;100335.97;7389029;19;20039;-79
2022/07/13 00:27:48;;;;;;;0.95;0.35;;;;;;;20.03;100.00;100328.22;7386703;19;20010;-79
2022/07/13 00:30:14;;;;;;;0.30;0.15;;;;;;;20.06;100.00;100330.75;7385928;19;20022;-81
2022/07/13 00:32:41;;;;;;;0.80;0.38;;;;;;;20.16;100.00;100334.75;7385106;19;20092;-79
2022/07/13 00:35:07;;;;;;;3.72;0.43;;;;;;;20.22;100.00;100343.22;7386660;19;20022;-79
2022/07/13 00:37:34;;;;;;;1.85;0.10;;;;;;;20.25;100.00;100345.75;7387924;19;20448;-79
2022/07/13 00:40:00;;;;;;;0.17;0.03;;;;;;;20.31;100.00;100346.44;7393744;19;20011;-79
2022/07/13 00:42:26;;;;;;;1.00;0.22;;;;;;;20.35;100.00;100346.16;7397413;19;20021;-79
2022/07/13 00:44:52;;;;;;;1.00;0.10;;;;;;;20.45;100.00;100343.72;7396004;19;20015;-79
2022/07/13 00:47:18;;;;;;;0.60;0.30;;;;;;;20.48;100.00;100329.28;7391515;19;20026;-80
2022/07/13 00:49:45;;;;;;;1.27;0.75;;;;;;;20.45;100.00;100338.84;7395699;19;20483;-80
2022/07/13 00:52:12;;;;;;;4.32;0.20;;;;;;;20.46;100.00;100323.41;7391551;19;20356;-79
2022/07/13 00:54:42;;;;;;;1.00;0.65;;;;;;;20.51;100.00;100336.69;7390427;19;20018;-82
2022/07/13 00:57:12;;;;;;;1.85;0.30;;;;;;;20.53;100.00;100331.25;7394529;19;20114;-79
2022/07/13 00:59:39;;;;;;;2.78;0.63;;;;;;;20.49;100.00;100332.88;7394410;19;20022;-80
2022/07/13 01:02:05;;;;;;;0.40;0.20;;;;;;;20.41;100.00;100338.38;7392141;19;20040;-79
2022/07/13 01:04:32;;;;;;;0.85;0.38;;;;;;;20.32;100.00;100335.91;7395224;19;20018;-79
2022/07/13 01:06:58;;;;;;;0.85;0.50;;;;;;;20.18;100.00;100342.72;7391311;19;20015;-79
2022/07/13 01:09:25;;;;;;;0.68;0.20;;;;;;;20.10;100.00;100341.75;7391920;19;20105;-79
2022/07/13 01:11:53;;;;;;;0.77;0.30;;;;;;;20.04;100.00;100341.81;7391090;19;20017;-79
2022/07/13 01:14:20;;;;;;;0.28;0.10;;;;;;;20.02;100.00;100340.81;7391500;19;20086;-79
2022/07/13 01:16:46;;;;;;;3.38;0.77;;;;;;;20.02;100.00;100338.00;7389723;19;20018;-80
2022/07/13 01:19:13;;;;;;;5.18;0.40;;;;;;;20.08;100.00;100341.53;7393242;19;20015;-79
2022/07/13 01:21:48;;;;;;;0.50;0.15;;;;;;;20.09;100.00;100345.91;7391883;19;20011;-79
2022/07/13 01:24:15;;;;;;;0.30;0.20;;;;;;;20.06;100.00;100349.78;7392450;19;20500;-80
2022/07/13 01:26:41;;;;;;;0.68;0.25;;;;;;;20.05;100.00;100346.19;7391476;19;20074;-80
2022/07/13 01:29:08;;;;;;;0.30;0.20;;;;;;;20.09;100.00;100345.91;7391542;19;20022;-81
2022/07/13 01:31:41;;;;;;;3.15;0.30;;;;;;;19.97;100.00;100353.72;7391093;19;20024;-80
2022/07/13 01:34:08;;;;;;;6.10;0.80;;;;;;;19.95;100.00;100345.00;7392948;19;20022;-79
2022/07/13 01:36:35;;;;;;;6.88;0.70;;;;;;;19.93;100.00;100349.63;7396231;19;20015;-79
2022/07/13 01:39:03;;;;;;;3.00;0.20;;;;;;;19.90;100.00;100345.06;7391825;19;20019;-80
2022/07/13 01:41:29;;;;;;;0.98;0.32;;;;;;;19.85;100.00;100345.88;7391688;19;20018;-80
2022/07/13 01:43:57;;;;;;;0.20;0.10;;;;;;;19.86;100.00;100344.59;7390137;19;20022;-79
2022/07/13 01:46:30;;;;;;;7.75;0.47;;;;;;;19.85;100.00;100348.69;7389922;19;20014;-80
2022/07/13 01:49:01;;;;;;;1.02;0.20;;;;;;;19.72;100.00;100340.84;7388435;19;20014;-80
2022/07/13 01:51:28;;;;;;;3.40;0.13;;;;;;;19.75;100.00;100339.78;7390988;19;20022;-79
2022/07/13 01:53:55;;;;;;;2.63;1.05;;;;;;;19.80;100.00;100341.78;7390180;19;20021;-80
2022/07/13 01:56:21;;;;;;;1.20;0.40;;;;;;;19.81;100.00;100353.88;7390514;19;20011;-79
2022/07/13 01:58:48;;;;;;;2.53;0.43;;;;;;;19.76;100.00;100349.03;7390533;19;20074;-80
2022/07/13 02:01:15;;;;;;;0.75;0.20;;;;;;;19.74;100.00;100349.56;7390732;19;20476;-80
2022/07/13 02:03:43;;;;;;;0.73;0.15;;;;;;;19.74;100.00;100343.13;7390087;19;20018;-80
2022/07/13 02:06:10;;;;;;;2.33;0.73;;;;;;;19.70;100.00;100348.31;7390490;19;20524;-80
2022/07/13 02:08:37;;;;;;;0.85;0.10;;;;;;;19.62;100.00;100343.22;7386756;19;20031;-79
2022/07/13 02:11:05;;;;;;;1.42;0.30;;;;;;;19.53;100.00;100345.63;7390443;19;20014;-79
2022/07/13 02:13:31;;;;;;;0.95;0.40;;;;;;;19.52;100.00;100350.50;7394661;19;20029;-80
2022/07/13 02:15:57;;;;;;;0.85;0.35;;;;;;;19.49;100.00;100350.81;7393893;19;20023;-79
2022/07/13 02:18:24;;;;;;;0.25;0.10;;;;;;;19.51;100.00;100348.97;7389898;19;20013;-80
2022/07/13 02:20:50;;;;;;;2.30;0.22;;;;;;;19.50;100.00;100347.44;7389996;19;20014;-79
2022/07/13 02:23:16;;;;;;;2.65;0.55;;;;;;;19.49;100.00;100348.72;7388259;19;20027;-80
2022/07/13 02:25:43;;;;;;;0.63;0.30;;;;;;;19.45;100.00;100348.25;7390896;19;20018;-80
2022/07/13 02:28:12;;;;;;;2.90;0.50;;;;;;;19.52;100.00;100344.88;7386646;19;20014;-80
2022/07/13 02:30:38;;;;;;;2.10;0.57;;;;;;;19.58;100.00;100341.97;7389951;19;20010;-79
2022/07/13 02:33:04;;;;;;;2.20;0.25;;;;;;;19.65;100.00;100347.84;7389510;19;20011;-80
2022/07/13 02:35:30;;;;;;;1.60;0.35;;;;;;;19.69;100.00;100341.88;7393372;19;20508;-80
2022/07/13 02:37:58;;;;;;;3.40;0.40;;;;;;;19.66;100.00;100346.53;7387474;19;20022;-79
2022/07/13 02:40:25;;;;;;;2.85;0.63;;;;;;;19.80;100.00;100349.50;7388890;19;20011;-79
2022/07/13 02:42:55;;;;;;;1.05;0.30;;;;;;;19.85;100.00;100341.00;7388156;19;20010;-79
2022/07/13 02:45:21;;;;;;;1.10;0.47;;;;;;;19.84;100.00;100344.34;7392501;19;20081;-79
2022/07/13 02:47:48;;;;;;;0.43;0.25;;;;;;;19.77;100.00;100350.56;7386162;19;20015;-79
2022/07/13 02:50:15;;;;;;;1.05;0.65;;;;;;;19.81;100.00;100353.88;7388764;19;20018;-79
2022/07/13 02:52:41;;;;;;;2.05;0.63;;;;;;;19.84;100.00;100355.66;7389225;19;20038;-80
2022/07/13 02:55:08;;;;;;;5.03;1.33;;;;;;;19.87;100.00;100354.59;7389979;19;20015;-80
2022/07/13 02:57:35;;;;;;;2.72;0.65;;;;;;;19.91;100.00;100352.22;7388512;19;20021;-80
2022/07/13 03:00:06;;;;;;;2.50;0.68;;;;;;;20.00;100.00;100357.53;7387300;19;20518;-80
2022/07/13 03:02:32;;;;;;;2.95;0.95;;;;;;;20.03;100.00;100353.69;7386073;19;20027;-79
2022/07/13 03:04:58;;;;;;;3.63;0.70;;;;;;;20.04;100.00;100361.63;7388877;19;20082;-80
2022/07/13 03:07:25;;;;;;;1.58;0.80;;;;;;;20.04;100.00;100355.97;7386446;19;20035;-80
2022/07/13 03:09:52;;;;;;;12.07;1.33;;;;;;;20.03;100.00;100354.41;7388010;19;20028;-79
2022/07/13 03:12:18;;;;;;;3.35;1.50;;;;;;;20.08;100.00;100361.31;7390387;19;20022;-80
2022/07/13 03:14:45;;;;;;;4.47;0.73;;;;;;;20.08;100.00;100372.63;7390475;19;20596;-80
2022/07/13 03:17:11;;;;;;;10.75;0.80;;;;;;;20.11;100.00;100371.56;7388808;19;20377;-79
2022/07/13 03:19:37;;;;;;;4.50;1.80;;;;;;;20.14;100.00;100376.19;7387662;19;20041;-80
2022/07/13 03:22:05;;;;;;;1.77;0.70;;;;;;;20.10;100.00;100364.38;7387341;19;20048;-80
2022/07/13 03:24:32;;;;;;;9.50;1.23;;;;;;;20.08;100.00;100372.63;7388306;19;20015;-79
2022/07/13 03:26:59;;;;;;;0.95;0.57;;;;;;;20.06;100.00;100369.56;7386972;19;20692;-79
2022/07/13 03:29:26;;;;;;;9.23;0.88;;;;;;;20.00;100.00;100366.81;7386732;19;20015;-80
2022/07/13 03:31:52;;;;;;;3.42;1.00;;;;;;;20.03;100.00;100371.38;7386766;19;20018;-79
2022/07/13 03:34:19;;;;;;;3.22;1.13;;;;;;;20.02;100.00;100371.91;7386885;19;20048;-79
2022/07/13 03:36:46;;;;;;;2.95;0.77;;;;;;;20.03;100.00;100376.28;7386296;19;20013;-80
2022/07/13 03:39:12;;;;;;;1.55;0.52;;;;;;;20.02;100.00;100369.09;7385315;19;20018;-80
2022/07/13 03:41:39;;;;;;;10.25;0.65;;;;;;;20.02;100.00;100374.75;7386474;19;20014;-80
2022/07/13 03:44:06;;;;;;;0.68;0.45;;;;;;;19.97;100.00;100367.06;7387495;19;20021;-80
2022/07/13 03:46:33;;;;;;;2.45;0.77;;;;;;;19.95;100.00;100380.97;7386539;19;20035;-80
2022/07/13 03:49:00;;;;;;;2.65;0.77;;;;;;;19.93;100.00;100389.22;7386599;19;20026;-80
2022/07/13 03:51:28;;;;;;;4.75;0.68;;;;;;;19.91;100.00;100381.28;7386435;19;20086;-79
2022/07/13 03:53:54;;;;;;;7.90;2.05;;;;;;;19.86;100.00;100390.56;7386491;19;20010;-80
2022/07/13 03:56:20;;;;;;;2.25;0.85;;;;;;;19.82;100.00;100383.66;7386349;19;20356;-79
2022/07/13 03:58:46;;;;;;;1.75;0.60;;;;;;;19.81;100.00;100382.13;7386321;19;20364;-80
2022/07/13 04:01:14;;;;;;;4.78;0.75;;;;;;;19.77;100.00;100387.31;7386626;19;20456;-80
2022/07/13 04:03:40;;;;;;;4.15;0.73;;;;;;;19.67;100.00;100390.47;7388689;19;20481;-79
2022/07/13 04:06:06;;;;;;;6.30;0.98;;;;;;;19.54;100.00;100381.84;7386010;19;20018;-80
2022/07/13 04:08:32;;;;;;;3.30;0.57;;;;;;;19.47;100.00;100388.03;7384166;19;20015;-80
2022/07/13 04:10:58;;;;;;;12.15;1.05;;;;;;;19.42;100.00;100380.38;7386124;19;20094;-79
2022/07/13 04:13:25;;;;;;;3.55;0.43;;;;;;;19.42;100.00;100385.25;7385711;19;20602;-79
2022/07/13 04:15:51;;;;;;;2.83;0.28;;;;;;;19.35;100.00;100380.94;7387679;19;20027;-79
2022/07/13 04:18:17;;;;;;;1.90;0.43;;;;;;;19.35;100.00;100380.94;7385512;19;20363;-79
2022/07/13 04:20:43;;;;;;;6.55;1.25;;;;;;;19.34;100.00;100379.41;7386279;19;20048;-79
2022/07/13 04:23:09;;;;;;;4.25;0.77;;;;;;;19.28;100.00;100386.34;7386184;19;20018;-80
2022/07/13 04:25:36;;;;;;;0.90;0.28;;;;;;;19.22;100.00;100394.84;7390065;19;20022;-79
2022/07/13 04:28:03;;;;;;;3.60;0.63;;;;;;;19.20;100.00;100403.09;7386484;19;20010;-79
2022/07/13 04:30:29;;;;;;;1.38;0.63;;;;;;;19.19;100.00;100412.84;7385175;19;20019;-79
2022/07/13 04:32:57;;;;;;;0.73;0.52;;;;;;;19.18;100.00;100416.97;7384038;19;20017;-79
2022/07/13 04:35:24;;;;;;;2.05;0.28;;;;;;;19.19;100.00;100426.97;7388516;19;20090;-79
2022/07/13 04:37:53;;;;;;;3.03;0.50;;;;;;;19.17;100.00;100412.59;7385488;19;20014;-79
2022/07/13 04:40:19;;;;;;;8.23;1.15;;;;;;;19.12;100.00;100407.75;7385317;19;20014;-79
2022/07/13 04:42:45;;;;;;;0.17;0.00;;;;;;;19.04;100.00;100412.41;7385465;19;20114;-79
2022/07/13 04:45:13;;;;;;;0.90;0.30;;;;;;;18.96;100.00;100417.06;7387022;19;20014;-79
2022/07/13 04:47:40;;;;;;;1.23;0.43;;;;;;;18.90;100.00;100419.16;7384287;19;20018;-80
2022/07/13 04:50:08;;;;;;;0.70;0.28;;;;;;;18.86;100.00;100418.66;7387071;19;20037;-84
2022/07/13 04:52:34;;;;;;;1.08;0.88;;;;;;;18.83;100.00;100425.34;7385820;19;20018;-83
2022/07/13 04:55:00;;;;;;;5.35;0.65;;;;;;;18.82;100.00;100440.72;7389385;19;20015;-84
2022/07/13 04:57:27;;;;;;;12.93;0.90;;;;;;;18.74;100.00;100439.72;7387524;19;20015;-84
2022/07/13 04:59:53;;;;;;;5.15;0.57;;;;;;;18.62;100.00;100435.41;7386002;19;20018;-82
2022/07/13 05:02:19;;;;;;;8.50;0.57;;;;;;;18.70;100.00;100439.22;7384900;19;20742;-81
2022/07/13 05:04:46;;;;;;;0.77;0.20;;;;;;;18.69;100.00;100435.63;7385902;19;20074;-80
2022/07/13 05:07:12;;;;;;;3.83;0.95;;;;;;;18.61;100.00;100440.28;7383921;19;20501;-82
2022/07/13 05:09:39;;;;;;;4.53;0.63;;;;;;;18.52;100.00;100456.69;7383668;19;20015;-81
2022/07/13 05:12:06;;;;;;;1.25;0.40;;;;;;;18.46;100.00;100445.44;7383487;19;20031;-82
2022/07/13 05:14:32;;;;;;;2.33;0.55;;;;;;;18.42;100.00;100456.19;7386099;19;20018;-82
2022/07/13 05:16:58;;;;;;;5.35;0.75;;;;;;;18.32;100.00;100456.97;7383591;19;20041;-82
2022/07/13 05:19:25;;;;;;;17.65;0.65;;;;;;;18.18;100.00;100456.75;7385880;19;20065;-81
2022/07/13 05:21:51;;;;;;;0.70;0.55;;;;;;;18.08;100.00;100463.16;7383948;19;20022;-82
2022/07/13 05:24:17;;;;;;;22.60;0.40;;;;;;;17.95;100.00;100469.28;7387219;19;20333;-81
2022/07/13 05:26:43;;;;;;;12.35;0.50;;;;;;;17.86;100.00;100480.03;7390929;19;20018;-81
2022/07/13 05:29:09;;;;;;;2.08;0.40;;;;;;;17.81;100.00;100486.44;7390297;19;20057;-82
2022/07/13 05:31:37;;;;;;;5.28;0.45;;;;;;;17.81;100.00;100478.75;7389604;19;20106;-80
2022/07/13 05:34:04;;;;;;;5.38;0.28;;;;;;;17.94;100.00;100495.94;7389179;19;20029;-80
2022/07/13 05:36:35;;;;;;;0.47;0.30;;;;;;;18.03;100.00;100487.22;7389824;19;20014;-80
2022/07/13 05:39:01;;;;;;;0.77;0.20;;;;;;;18.06;100.00;100489.00;7391905;19;20022;-80
2022/07/13 05:41:27;;;;;;;10.60;0.80;;;;;;;18.10;100.00;100495.16;7390463;19;20010;-80
2022/07/13 05:43:54;;;;;;;1.20;0.57;;;;;;;18.06;100.00;100497.47;7390355;19;20014;-80
2022/07/13 05:46:21;;;;;;;0.65;0.50;;;;;;;18.00;100.00;100499.53;7390185;19;20021;-81
2022/07/13 05:48:48;;;;;;;1.00;0.28;;;;;;;18.04;100.00;100500.03;7389852;19;20849;-81
2022/07/13 05:51:14;;;;;;;2.45;0.98;;;;;;;18.11;100.00;100502.34;7389638;19;20414;-81
2022/07/13 05:53:40;;;;;;;5.93;0.45;;;;;;;18.23;100.00;100513.63;7390313;19;20015;-79
2022/07/13 05:56:07;;;;;;;1.02;0.30;;;;;;;18.24;100.00;100507.47;7392643;19;20020;-81
2022/07/13 05:58:34;;;;;;;0.47;0.30;;;;;;;18.26;100.00;100518.25;7393742;19;20018;-82
2022/07/13 06:01:00;;;;;;;0.30;0.25;;;;;;;18.25;100.00;100513.88;7390904;19;20066;-82
2022/07/13 06:03:26;;;;;;;1.05;0.22;;;;;;;18.26;100.00;100518.25;7391248;19;20027;-81
2022/07/13 06:05:52;;;;;;;9.13;0.40;;;;;;;18.27;100.00;100519.78;7391634;19;20527;-82
2022/07/13 06:08:18;;;;;;;4.03;0.13;;;;;;;18.26;100.00;100512.63;7390058;19;20011;-82
2022/07/13 06:10:45;;;;;;;4.10;0.65;;;;;;;18.25;100.00;100520.31;7390342;19;20048;-82
2022/07/13 06:13:11;;;;;;;3.88;0.28;;;;;;;18.23;100.00;100520.03;7394906;19;20028;-81
2022/07/13 06:15:37;;;;;;;1.95;0.40;;;;;;;18.23;100.00;100519.28;7393989;19;20011;-82
2022/07/13 06:18:05;;;;;;;2.53;0.77;;;;;;;18.21;100.00;100519.00;7391292;19;20022;-82
2022/07/13 06:20:31;;;;;;;0.10;0.00;;;;;;;18.18;100.00;100518.75;7389024;19;20018;-81
2022/07/13 06:23:09;;;;;;;3.33;0.25;;;;;;;18.19;100.00;100520.28;7389905;19;20028;-81
2022/07/13 06:25:38;;;;;;;1.13;0.52;;;;;;;18.25;100.00;100522.34;7395081;19;20030;-80
2022/07/13 06:28:05;;;;;;;6.03;1.08;;;;;;;18.23;100.00;100520.03;7387250;19;20006;-80
2022/07/13 06:30:33;;;;;;;1.85;0.45;;;;;;;18.19;100.00;100509.00;7389844;19;20014;-81
2022/07/13 06:32:59;;;;;;;0.55;0.25;;;;;;;18.23;100.00;100513.63;7389034;19;20351;-80
2022/07/13 06:35:26;;;;;;;6.95;0.13;;;;;;;18.24;100.00;100513.09;7393719;19;20026;-80
2022/07/13 06:37:52;;;;;;;4.57;0.40;;;;;;;18.23;100.00;100516.44;7391397;19;20017;-80
2022/07/13 06:40:18;;;;;;;0.10;0.03;;;;;;;18.18;100.00;100512.34;7389710;19;20037;-82
2022/07/13 06:42:45;;;;;;;2.05;0.38;;;;;;;18.13;100.00;100516.69;7389185;19;20479;-80
2022/07/13 06:45:11;;;;;;;0.32;0.32;;;;;;;18.05;100.00;100521.31;7392139;19;20024;-82
2022/07/13 06:47:38;;;;;;;0.30;0.30;;;;;;;18.04;100.00;100525.41;7386292;19;20011;-82
2022/07/13 06:50:08;;;;;;;0.10;0.10;;;;;;;18.13;100.00;100522.34;7388596;19;20026;-81
2022/07/13 06:52:35;;;;;;;3.70;0.20;;;;;;;18.26;100.00;100535.19;7388406;19;20029;-81
2022/07/13 06:55:01;;;;;;;1.23;0.30;;;;;;;18.32;100.00;100538.75;7392185;19;20042;-83
2022/07/13 06:57:27;;;;;;;0.30;0.22;;;;;;;18.44;100.00;100534.66;7389201;19;20022;-83
2022/07/13 06:59:54;;;;;;;3.83;1.00;;;;;;;18.46;100.00;100538.53;7388931;19;20011;-84
2022/07/13 07:02:20;;;;;;;6.20;0.65;;;;;;;18.50;100.00;100529.78;7387878;19;20082;-79
2022/07/13 07:04:46;;;;;;;0.47;0.17;;;;;;;18.54;100.00;100538.75;7389806;19;20475;-79
2022/07/13 07:07:13;;;;;;;4.82;0.30;;;;;;;18.59;100.00;100554.94;7385993;19;20022;-78
2022/07/13 07:09:39;;;;;;;0.25;0.20;;;;;;;18.58;100.00;100550.56;7387926;19;20018;-79
2022/07/13 07:12:05;;;;;;;1.23;0.50;;;;;;;18.56;100.00;100550.31;7391469;19;20111;-81
2022/07/13 07:14:32;;;;;;;3.13;0.65;;;;;;;18.56;100.00;100551.06;7390514;19;20009;-80
2022/07/13 07:17:02;;;;;;;0.43;0.38;;;;;;;18.58;100.00;100556.22;7388878;19;20028;-81
2022/07/13 07:19:29;;;;;;;2.70;0.32;;;;;;;18.81;100.00;100560.56;7387910;19;20029;-80
2022/07/13 07:21:55;;;;;;;5.93;0.22;;;;;;;18.77;100.00;100554.41;7387829;19;20031;-80
2022/07/13 07:24:22;;;;;;;1.27;0.40;;;;;;;18.69;100.00;100556.97;7388324;19;20015;-80
2022/07/13 07:26:49;;;;;;;6.30;0.65;;;;;;;18.63;100.00;100559.03;7385816;19;20109;-80
2022/07/13 07:29:15;;;;;;;5.45;0.40;;;;;;;18.70;100.00;100563.38;7386690;19;20487;-82
2022/07/13 07:31:41;;;;;;;0.20;0.20;;;;;;;18.77;100.00;100562.88;7387111;19;20467;-80
2022/07/13 07:34:07;;;;;;;0.30;0.10;;;;;;;18.88;100.00;100560.03;7388194;19;20018;-81
2022/07/13 07:36:34;;;;;;;2.78;0.52;;;;;;;18.96;100.00;100558.22;7385921;19;20014;-81
2022/07/13 07:39:00;;;;;;;0.10;0.10;;;;;;;19.12;100.00;100557.41;7385897;19;20018;-81
2022/07/13 07:41:26;;;;;;;0.50;0.10;;;;;;;19.18;100.00;100563.03;7387758;19;20014;-81
2022/07/13 07:43:52;;;;;;;0.40;0.30;;;;;;;19.17;100.00;100561.47;7389336;19;20025;-80
2022/07/13 07:46:19;;;;;;;1.08;0.45;;;;;;;19.16;100.00;100566.38;7385633;19;20019;-82
2022/07/13 07:48:45;;;;;;;1.17;0.20;;;;;;;19.07;100.00;100557.41;7388224;19;20028;-82
2022/07/13 07:51:11;;;;;;;2.20;0.28;;;;;;;19.01;100.00;100560.25;7386723;19;20658;-81
2022/07/13 07:53:37;;;;;;;0.57;0.35;;;;;;;19.04;100.00;100564.09;7386729;19;20110;-81
2022/07/13 07:56:04;;;;;;;1.20;0.50;;;;;;;19.01;100.00;100565.91;7386466;19;20168;-79
2022/07/13 07:58:31;;;;;;;2.95;0.57;;;;;;;19.20;100.00;100564.06;7388051;19;20025;-81
2022/07/13 08:00:57;;;;;;;5.72;0.32;;;;;;;19.49;100.00;100560.63;7385237;19;20010;-81
2022/07/13 08:03:23;;;;;;;2.38;0.20;;;;;;;19.74;100.00;100555.13;7386042;19;20019;-81
2022/07/13 08:05:52;;;;;;;0.10;0.10;;;;;;;19.86;100.00;100565.84;7385950;19;20521;-76
2022/07/13 08:08:18;;;;;;;1.38;0.22;;;;;;;20.06;100.00;100561.84;7385999;19;20026;-75
2022/07/13 08:10:45;;;;;;;3.03;0.55;;;;;;;20.18;100.00;100560.50;7387694;19;20018;-76
2022/07/13 08:13:11;;;;;;;0.32;0.17;;;;;;;20.07;100.00;100557.75;7388732;19;20022;-76
2022/07/13 08:15:37;;;;;;;0.30;0.15;;;;;;;19.99;100.00;100565.25;7391423;19;20472;-76
2022/07/13 08:18:03;;;;;;;2.97;0.40;;;;;;;19.96;100.00;100558.59;7386188;19;20014;-76
2022/07/13 08:20:30;;;;;;;0.28;0.15;;;;;;;19.70;100.00;100563.09;7386331;19;20023;-77
2022/07/13 08:22:56;;;;;;;5.47;0.35;;;;;;;19.86;100.00;100563.00;7384913;19;20047;-76
2022/07/13 08:25:23;;;;;;;0.10;0.10;;;;;;;20.03;100.00;100552.34;7389577;19;20014;-75
2022/07/13 08:27:49;;;;;;;1.75;0.50;;;;;;;20.31;100.00;100550.13;7384286;19;20022;-76
2022/07/13 08:30:15;;;;;;;0.80;0.20;;;;;;;20.48;100.00;100561.31;7386275;19;20037;-76
2022/07/13 08:32:41;;;;;;;2.92;0.65;;;;;;;20.51;100.00;100568.75;7385362;19;20034;-76
2022/07/13 08:40:42;;;;;;;0.40;0.10;;;;;;;20.84;100.00;100562.78;7386290;19;20090;-77
2022/07/13 08:43:08;;;;;;;0.30;0.20;;;;;;;20.86;100.00;100556.59;7384229;19;20094;-77
2022/07/13 08:45:35;;;;;;;1.75;0.10;;;;;;;20.98;100.00;100564.47;7388853;19;20019;-80
2022/07/13 08:48:14;;;;;;;0.20;0.10;;;;;;;21.19;100.00;100572.50;7385408;19;20023;-80
2022/07/13 08:50:41;;;;;;;0.00;0.00;;;;;;;21.46;100.00;100560.81;7388726;19;20086;-77
2022/07/13 08:53:08;;;;;;;0.40;0.00;;;;;;;21.53;100.00;100565.91;7386126;19;20763;-77
2022/07/13 08:55:36;;;;;;;0.90;0.10;;;;;;;21.54;100.00;100567.44;7390935;19;20011;-76
2022/07/13 08:58:02;;;;;;;0.22;0.20;;;;;;;21.64;100.00;100570.66;7386483;19;20018;-76
2022/07/13 09:00:29;;;;;;;0.40;0.20;;;;;;;21.74;100.00;100564.06;7392409;19;20019;-75
2022/07/13 09:02:55;;;;;;;0.10;0.10;;;;;;;21.69;100.00;100564.16;7395078;19;20014;-79
2022/07/13 09:05:23;;;;;;;1.20;0.20;;;;;;;21.70;100.00;100579.88;7397660;19;20018;-77
2022/07/13 09:08:05;;;;;;;0.20;0.10;;;;;;;21.74;100.00;100591.66;7395182;19;20053;-80
2022/07/13 09:10:32;;;;;;;2.17;0.10;;;;;;;21.84;100.00;100573.00;7392765;19;20095;-80
2022/07/13 09:12:58;;;;;;;0.60;0.28;;;;;;;21.92;100.00;100578.84;7391939;19;20023;-81
2022/07/13 09:15:24;;;;;;;0.52;0.10;;;;;;;21.91;100.00;100578.06;7397069;19;20011;-78
2022/07/13 09:17:51;;;;;;;0.75;0.32;;;;;;;21.95;100.00;100580.59;7390773;19;20093;-78
2022/07/13 09:20:20;;;;;;;0.38;0.38;;;;;;;21.93;100.00;100571.84;7393429;19;20521;-82
2022/07/13 09:22:57;;;;;;;0.43;0.10;;;;;;;21.98;100.00;100582.34;7390695;19;20022;-81
2022/07/13 09:25:28;;;;;;;2.50;0.20;;;;;;;22.16;100.00;100576.66;7394049;19;20390;-81
2022/07/13 09:27:55;;;;;;;0.32;0.10;;;;;;;22.39;100.00;100575.00;7387993;19;20018;-81
2022/07/13 09:30:26;;;;;;;0.20;0.00;;;;;;;22.55;100.00;100584.56;7390159;19;20610;-78
2022/07/13 09:32:54;;;;;;;0.20;0.10;;;;;;;22.57;100.00;100581.94;7393481;19;20046;-80
2022/07/13 09:35:21;;;;;;;1.75;0.00;;;;;;;22.63;100.00;100579.81;7390817;19;20445;-79
2022/07/13 09:37:48;;;;;;;0.32;0.08;;;;;;;22.58;100.00;100570.06;7393838;19;20152;-79
2022/07/13 09:40:18;;;;;;;1.00;0.20;;;;;;;22.59;100.00;100585.78;7393347;19;20018;-79
2022/07/13 09:46:08;;;;;;;5.13;0.20;;;;;;;22.75;100.00;100583.22;7393010;19;20037;-79
2022/07/13 09:48:22;;;;;;;0.13;0.00;;;;;;;22.88;100.00;100578.34;7390405;19;20014;-80
2022/07/13 09:50:53;;;;;;;1.80;0.30;;;;;;;22.85;100.00;100572.97;7391867;19;20876;-79
2022/07/13 09:53:30;;;;;;;4.22;0.57;;;;;;;22.90;100.00;100580.63;7390801;19;20026;-82
2022/07/13 09:56:02;;;;;;;0.38;0.20;;;;;;;22.95;100.00;100582.59;7390785;19;20480;-80
2022/07/13 09:58:33;;;;;;;1.20;0.10;;;;;;;23.02;100.00;100573.44;7390206;19;20014;-84
2022/07/13 10:01:02;;;;;;;1.50;0.10;;;;;;;22.82;100.00;100591.09;7390125;19;20014;-82
2022/07/13 10:03:29;;;;;;;2.17;0.00;;;;;;;22.63;100.00;100590.41;7391707;19;20078;-84
2022/07/13 10:05:57;;;;;;;2.00;0.10;;;;;;;22.75;100.00;100594.56;7392994;19;20038;-84
2022/07/13 10:08:23;;;;;;;0.20;0.10;;;;;;;22.85;100.00;100587.94;7390825;19;20081;-84
2022/07/13 10:10:50;;;;;;;1.25;0.10;;;;;;;22.88;100.00;100589.69;7390227;19;20082;-81
2022/07/13 10:13:17;;;;;;;0.47;0.00;;;;;;;22.95;100.00;100593.97;7390354;19;20039;-82
2022/07/13 10:15:45;;;;;;;1.10;0.17;;;;;;;23.15;100.00;100590.50;7394947;19;20025;-80
2022/07/13 10:18:24;;;;;;;1.25;0.13;;;;;;;23.27;100.00;100592.56;7391313;19;20018;-81
2022/07/13 10:21:04;;;;;;;0.90;0.30;;;;;;;23.44;100.00;100592.28;7391630;19;20487;-81
2022/07/13 10:23:37;;;;;;;0.45;0.00;;;;;;;23.54;100.00;100581.97;7391000;19;20472;-81
2022/07/13 10:26:03;;;;;;;0.75;0.20;;;;;;;23.67;100.00;100593.34;7389632;19;20019;-79
2022/07/13 10:28:30;;;;;;;0.10;0.00;;;;;;;23.56;100.00;100585.06;7389331;19;20025;-82
2022/07/13 10:30:56;;;;;;;1.02;0.65;;;;;;;23.45;100.00;100585.28;7391265;19;20015;-81
2022/07/13 10:33:26;;;;;;;3.15;0.20;;;;;;;23.43;100.00;100593.59;7389398;19;20021;-80
2022/07/13 10:35:57;;;;;;;;;;;;;;;23.54;100.00;100587.66;7390165;19;20103;-80
2022/07/13 10:38:28;;;;;;;0.10;0.00;;;;;;;23.66;100.00;100573.97;7389556;19;20351;-81
2022/07/13 10:41:32;;;;;;;;;;;;;;;23.75;100.00;100588.53;7391007;19;20400;-82
2022/07/13 10:44:37;;;;;;;0.10;0.10;;;;;;;23.99;100.00;100587.47;7387189;19;20063;-81
2022/07/13 10:47:08;;;;;;;2.50;0.10;;;;;;;24.20;100.00;100573.31;7389342;19;20058;-84
2022/07/13 10:49:36;;;;;;;3.58;0.10;;;;;;;24.27;100.00;100579.09;7388776;19;20081;-83
2022/07/13 10:52:21;;;;;;;1.23;0.28;;;;;;;24.32;100.00;100592.41;7387527;19;20476;-80
2022/07/13 10:57:33;;;;;;;2.30;0.32;;;;;;;24.14;100.00;100590.53;7388966;19;20879;-84
2022/07/13 11:00:01;;;;;;;0.30;0.20;;;;;;;24.20;100.00;100596.09;7386877;19;20479;-83
2022/07/13 11:02:49;;;;;;;0.35;0.10;;;;;;;24.14;100.00;100592.59;7387370;19;20018;-81
2022/07/13 11:05:18;;;;;;;0.10;0.00;;;;;;;24.06;100.00;100598.22;7391753;19;20022;-80
2022/07/13 11:07:46;;;;;;;0.00;0.00;;;;;;;24.16;100.00;100602.13;7386831;19;20027;-82
2022/07/13 11:10:18;;;;;;;2.85;0.10;;;;;;;24.23;100.00;100589.28;7389029;19;20380;-82
2022/07/13 11:12:58;;;;;;;0.40;0.30;;;;;;;24.30;100.00;100595.06;7388149;19;20014;-80
2022/07/13 11:15:41;;;;;;;;;;;;;;;24.42;100.00;100595.56;7393285;19;20097;-80
2022/07/13 11:18:23;;;;;;;3.90;0.00;;;;;;;24.42;97.64;100599.19;7386740;19;20349;-83
2022/07/13 11:20:59;;;;;;;0.38;0.10;;;;;;;24.30;95.34;100600.00;7389670;19;20029;-82
2022/07/13 11:26:41;;;;;;;2.45;0.25;;;;;;;24.52;99.73;100608.75;7388066;19;20479;-80
2022/07/13 11:29:18;;;;;;;1.50;0.10;;;;;;;24.62;99.44;100603.38;7385211;19;20037;-80
2022/07/13 11:31:45;;;;;;;0.30;0.20;;;;;;;24.71;97.64;100603.63;7387679;19;20479;-80
2022/07/13 11:34:11;;;;;;;0.85;0.10;;;;;;;24.73;96.33;100603.09;7387144;19;20019;-80